Time;durP1;ratioP1;P1;durP2;ratioP2;P2;SDS_P1;SDS_P2;PMS_P1;PMS_P2;Temp;Humidity;BMP_temperature;BMP_pressure;BME280_temperature;BME280_humidity;BME280_pressure;Samples;Min_cycle;Max_cycle;Signal;HPM_P1;HPM_P2
2022/04/27 00:02:25;;;;;;;5.60;2.60;;;;;;;10.34;95.84;100318.15;1766233;81;21047;-65
2022/04/27 00:04:55;;;;;;;4.00;2.60;;;;;;;10.32;94.78;100318.87;1778080;80;21404;-64
2022/04/27 00:07:24;;;;;;;3.72;2.50;;;;;;;10.23;93.33;100315.42;1778096;80;21066;-64
2022/04/27 00:09:53;;;;;;;5.30;2.72;;;;;;;10.17;92.55;100326.61;1778354;80;21047;-64
2022/04/27 00:12:23;;;;;;;4.05;2.02;;;;;;;10.20;92.07;100325.41;1778351;80;20987;-65
2022/04/27 00:14:53;;;;;;;3.12;2.08;;;;;;;10.24;91.20;100327.23;1778119;81;21019;-64
2022/04/27 00:17:22;;;;;;;4.65;2.22;;;;;;;10.22;89.88;100333.42;1778075;81;21062;-64
2022/04/27 00:19:52;;;;;;;3.65;2.17;;;;;;;10.15;89.16;100331.95;1778285;80;21024;-67
2022/04/27 00:22:24;;;;;;;3.70;2.15;;;;;;;10.14;88.69;100327.53;1778112;81;21055;-63
2022/04/27 00:24:54;;;;;;;3.50;2.20;;;;;;;10.11;87.94;100328.77;1778021;80;21395;-65
2022/04/27 00:27:23;;;;;;;2.70;1.90;;;;;;;10.10;87.12;100339.39;1778259;81;21082;-63
2022/04/27 00:29:55;;;;;;;3.58;2.37;;;;;;;10.11;86.89;100338.35;1748811;80;21059;-63
2022/04/27 00:32:26;;;;;;;4.47;2.20;;;;;;;10.14;86.57;100335.22;1749201;81;21471;-63
2022/04/27 00:34:55;;;;;;;3.12;2.60;;;;;;;10.12;86.13;100340.56;1747814;81;21035;-64
2022/04/27 00:37:27;;;;;;;3.52;2.30;;;;;;;10.13;85.86;100342.27;1774309;80;21484;-64
2022/04/27 00:39:56;;;;;;;2.77;2.20;;;;;;;10.15;85.71;100333.33;1767582;81;21067;-63
2022/04/27 00:42:26;;;;;;;2.90;2.00;;;;;;;10.17;85.54;100332.09;1767417;81;21000;-64
2022/04/27 00:44:56;;;;;;;3.20;2.17;;;;;;;10.18;85.45;100341.15;1767698;80;21110;-64
2022/04/27 00:47:28;;;;;;;4.65;2.35;;;;;;;10.15;84.94;100343.76;1767401;81;21016;-65
2022/04/27 00:49:58;;;;;;;3.08;2.20;;;;;;;10.09;84.59;100347.80;1767489;81;21067;-64
2022/04/27 00:52:28;;;;;;;3.08;2.27;;;;;;;10.09;84.67;100351.39;1767415;81;21064;-64
2022/04/27 00:54:59;;;;;;;4.28;2.30;;;;;;;10.10;84.58;100359.93;1746367;81;21064;-63
2022/04/27 00:57:28;;;;;;;2.50;2.10;;;;;;;10.09;84.56;100369.70;1767647;81;21028;-63
2022/04/27 00:59:58;;;;;;;3.25;1.92;;;;;;;10.07;84.64;100375.90;1767476;81;21043;-65
2022/04/27 01:02:29;;;;;;;2.80;1.90;;;;;;;10.05;84.61;100371.14;1767518;81;21420;-64
2022/04/27 01:05:00;;;;;;;2.98;2.20;;;;;;;10.08;84.47;100384.44;1767487;80;21436;-65
2022/04/27 01:07:30;;;;;;;5.55;2.10;;;;;;;10.08;84.37;100380.33;1767414;81;21443;-64
2022/04/27 01:10:01;;;;;;;3.00;2.20;;;;;;;10.09;84.43;100381.50;1746406;81;21043;-74
2022/04/27 01:12:33;;;;;;;2.25;2.05;;;;;;;10.06;84.35;100387.37;1767655;81;21024;-64
2022/04/27 01:15:08;;;;;;;4.22;1.90;;;;;;;10.03;84.45;100393.23;1746992;81;21024;-63
2022/04/27 01:17:38;;;;;;;3.83;2.12;;;;;;;10.03;84.23;100395.12;1767436;81;21048;-66
2022/04/27 01:20:09;;;;;;;4.20;2.30;;;;;;;10.01;84.19;100389.00;1767678;81;21012;-64
2022/04/27 01:22:38;;;;;;;4.15;2.37;;;;;;;10.00;84.18;100389.52;1767453;81;21485;-64
2022/04/27 01:25:08;;;;;;;3.40;2.33;;;;;;;9.99;84.26;100391.08;1746612;81;21077;-65
2022/04/27 01:27:42;;;;;;;3.40;2.15;;;;;;;9.98;84.18;100396.22;1745886;81;21012;-64
2022/04/27 01:30:13;;;;;;;2.72;2.20;;;;;;;10.00;84.19;100394.14;1767367;81;21043;-65
2022/04/27 01:32:44;;;;;;;3.92;2.22;;;;;;;9.97;83.88;100396.75;1683151;85;21478;-65
2022/04/27 01:35:13;;;;;;;4.37;2.25;;;;;;;9.95;83.88;100396.61;1683547;84;21027;-65
2022/04/27 01:38:03;;;;;;;3.45;1.92;;;;;;;9.92;83.94;100396.48;1683103;85;21273;-63
2022/04/27 01:40:32;;;;;;;3.35;2.27;;;;;;;9.96;84.05;100399.68;1683290;85;21491;-65
2022/04/27 01:43:01;;;;;;;3.08;2.20;;;;;;;9.93;83.84;100395.44;1683124;85;21035;-64
2022/04/27 01:45:32;;;;;;;4.58;2.22;;;;;;;9.95;83.81;100394.72;1683410;84;22106;-63
2022/04/27 01:48:03;;;;;;;3.92;2.02;;;;;;;9.96;83.67;100396.94;1683265;85;21195;-65
2022/04/27 01:50:34;;;;;;;2.70;2.15;;;;;;;9.94;83.26;100394.92;1693436;81;21087;-63
2022/04/27 01:55:55;;;;;;;4.33;1.98;;;;;;;9.96;83.28;100390.95;1767720;81;21048;-65
2022/04/27 01:58:24;;;;;;;2.55;1.90;;;;;;;10.03;83.30;100396.48;1745894;81;21024;-64
2022/04/27 02:00:55;;;;;;;4.62;2.10;;;;;;;10.06;82.96;100395.58;1745879;81;21024;-64
2022/04/27 02:03:25;;;;;;;4.37;2.50;;;;;;;10.02;82.91;100396.16;1746175;81;20980;-66
2022/04/27 02:05:59;;;;;;;2.85;2.20;;;;;;;9.99;82.76;100392.45;1745919;81;21456;-64
2022/04/27 02:08:30;;;;;;;2.62;2.15;;;;;;;10.00;82.87;100392.77;1767511;81;20992;-65
2022/04/27 02:11:00;;;;;;;4.22;2.10;;;;;;;10.02;82.76;100396.16;1746559;81;21107;-64
2022/04/27 02:13:30;;;;;;;3.42;2.27;;;;;;;10.03;82.65;100397.34;1767477;81;21511;-65
2022/04/27 02:16:05;;;;;;;3.50;2.42;;;;;;;10.02;82.67;100393.42;1767634;81;21044;-71
2022/04/27 02:18:38;;;;;;;3.02;2.25;;;;;;;10.01;82.62;100391.73;1767665;81;20980;-63
2022/04/27 02:21:09;;;;;;;4.03;1.95;;;;;;;10.01;82.33;100402.69;1767756;81;20996;-64
2022/04/27 02:23:39;;;;;;;3.08;2.12;;;;;;;9.99;82.24;100399.29;1767577;81;21055;-64
2022/04/27 02:26:09;;;;;;;2.52;2.12;;;;;;;9.98;82.17;100408.55;1767828;81;21060;-64
2022/04/27 02:28:42;;;;;;;3.05;2.12;;;;;;;9.96;82.12;100403.27;1767438;81;21071;-63
2022/04/27 02:31:13;;;;;;;6.45;2.35;;;;;;;9.94;82.00;100407.23;1767604;81;21008;-64
2022/04/27 02:33:42;;;;;;;2.75;2.25;;;;;;;9.92;81.83;100402.48;1767595;81;21076;-64
2022/04/27 02:36:12;;;;;;;3.40;2.37;;;;;;;9.93;81.91;100412.38;1767517;81;21400;-65
2022/04/27 02:38:42;;;;;;;4.08;2.10;;;;;;;9.92;82.03;100409.31;1769859;81;21055;-64
2022/04/27 02:41:14;;;;;;;3.98;2.40;;;;;;;9.90;82.19;100410.88;1773188;80;21047;-64
2022/04/27 02:43:44;;;;;;;3.15;2.02;;;;;;;9.92;82.34;100418.38;1773489;81;21296;-63
2022/04/27 02:46:15;;;;;;;3.30;2.10;;;;;;;9.94;82.26;100419.55;1773152;81;21008;-63
2022/04/27 02:51:49;;;;;;;3.15;2.30;;;;;;;9.97;82.10;100413.69;1773323;81;21266;-65
2022/04/27 02:54:22;;;;;;;;;;;;;;;9.96;81.97;100420.20;1775980;81;21126;-63
2022/04/27 02:56:54;;;;;;;3.35;2.12;;;;;;;9.91;81.68;100419.42;1773553;80;20509;-64
2022/04/27 02:59:25;;;;;;;2.83;1.95;;;;;;;9.88;81.73;100423.06;1773137;81;21062;-63
2022/04/27 03:01:55;;;;;;;3.37;2.27;;;;;;;9.87;81.85;100427.69;1743199;81;21059;-63
2022/04/27 03:04:24;;;;;;;3.83;2.40;;;;;;;9.89;81.89;100430.23;1743695;81;21131;-64
2022/04/27 03:06:56;;;;;;;3.62;2.42;;;;;;;9.92;82.12;100427.11;1707256;83;21089;-63
2022/04/27 03:09:25;;;;;;;3.85;2.27;;;;;;;9.93;81.78;100435.65;1707368;84;21040;-64
2022/04/27 03:11:54;;;;;;;6.03;2.42;;;;;;;9.93;81.72;100437.02;1707257;84;21070;-64
2022/04/27 03:14:28;;;;;;;4.45;2.50;;;;;;;9.94;81.78;100439.56;1706992;84;21044;-64
2022/04/27 03:16:58;;;;;;;3.22;2.27;;;;;;;9.95;81.73;100445.88;1707437;84;21047;-63
2022/04/27 03:19:27;;;;;;;4.30;2.37;;;;;;;9.93;81.46;100441.12;1707433;84;21016;-64
2022/04/27 03:21:57;;;;;;;4.17;2.58;;;;;;;9.93;81.50;100451.55;1707370;84;21027;-64
2022/04/27 03:24:27;;;;;;;4.05;2.40;;;;;;;9.91;81.30;100452.78;1722740;81;20996;-64
2022/04/27 03:26:58;;;;;;;3.17;2.27;;;;;;;9.90;81.27;100450.56;1771893;81;21040;-65
2022/04/27 03:29:27;;;;;;;4.58;2.58;;;;;;;9.90;81.16;100454.67;1743118;81;21032;-66
2022/04/27 03:32:00;;;;;;;6.33;2.67;;;;;;;9.88;81.03;100457.27;1773203;81;21032;-63
2022/04/27 03:34:30;;;;;;;3.90;2.40;;;;;;;9.87;81.06;100459.16;1773385;81;21079;-64
2022/04/27 03:37:02;;;;;;;2.87;2.10;;;;;;;9.89;80.99;100458.97;1678872;85;21090;-63
2022/04/27 03:39:32;;;;;;;4.72;2.45;;;;;;;9.91;80.81;100460.47;1681732;85;21111;-64
2022/04/27 03:42:05;;;;;;;2.42;2.15;;;;;;;9.93;80.86;100458.91;1656461;85;21082;-64
2022/04/27 03:44:36;;;;;;;3.50;2.37;;;;;;;9.94;80.62;100471.55;1683369;85;21105;-65
2022/04/27 03:47:08;;;;;;;3.00;2.20;;;;;;;9.89;80.31;100474.86;1683435;85;21522;-64
2022/04/27 03:49:37;;;;;;;4.87;2.17;;;;;;;9.87;80.52;100473.36;1683459;85;21196;-63
2022/04/27 03:52:07;;;;;;;3.72;2.60;;;;;;;9.89;80.35;100474.86;1683154;85;21090;-64
2022/04/27 03:54:37;;;;;;;5.30;2.70;;;;;;;9.87;80.05;100476.09;1683198;85;21047;-64
2022/04/27 03:57:08;;;;;;;3.77;2.55;;;;;;;9.88;80.05;100480.53;1683376;85;21027;-63
2022/04/27 03:59:38;;;;;;;3.98;2.60;;;;;;;9.89;79.90;100478.97;1613388;89;21049;-64
2022/04/27 04:02:07;;;;;;;3.37;2.27;;;;;;;9.88;79.62;100475.06;1662936;85;21102;-64
2022/04/27 04:04:37;;;;;;;4.65;2.40;;;;;;;9.89;79.70;100484.97;1683372;85;21074;-64
2022/04/27 04:07:09;;;;;;;4.10;2.72;;;;;;;9.92;79.62;100483.22;1683168;85;21510;-64
2022/04/27 04:09:41;;;;;;;4.30;2.60;;;;;;;9.96;79.36;100483.16;1660526;85;21019;-64
2022/04/27 04:12:11;;;;;;;3.45;2.45;;;;;;;9.96;79.23;100488.63;1683487;85;21063;-64
2022/04/27 04:15:02;;;;;;;3.65;2.58;;;;;;;9.99;79.11;100490.98;1683188;85;21050;-64
2022/04/27 04:17:35;;;;;;;4.22;2.60;;;;;;;10.03;78.80;100492.30;1704647;81;21055;-65
2022/04/27 04:20:14;;;;;;;4.30;2.70;;;;;;;10.07;78.76;100496.34;1646340;85;21447;-65
2022/04/27 04:22:48;;;;;;;10.48;2.80;;;;;;;10.09;78.51;100501.11;1681444;85;21063;-64
2022/04/27 04:28:29;;;;;;;3.80;2.60;;;;;;;10.17;78.22;100495.00;1683221;85;21051;-65
2022/04/27 04:31:01;;;;;;;5.42;2.60;;;;;;;10.24;78.00;100499.73;1664199;85;21071;-65
2022/04/27 04:33:35;;;;;;;5.60;3.50;;;;;;;10.34;77.87;100504.38;1682353;85;21115;-64
2022/04/27 04:36:09;;;;;;;5.85;3.60;;;;;;;10.41;77.50;100502.08;1661140;85;21087;-64
2022/04/27 04:38:42;;;;;;;5.22;3.30;;;;;;;10.50;77.46;100506.91;1748540;80;21023;-64
2022/04/27 04:41:15;;;;;;;4.30;2.58;;;;;;;10.64;77.22;100512.00;1775880;80;21043;-65
2022/04/27 04:43:47;;;;;;;4.05;2.47;;;;;;;10.80;76.84;100502.14;1776119;80;21016;-64
2022/04/27 04:46:18;;;;;;;4.53;2.77;;;;;;;11.00;76.23;100505.91;1775746;81;21023;-64
2022/04/27 04:49:03;;;;;;;4.90;3.00;;;;;;;11.17;74.84;100507.87;1749857;81;21693;-65
2022/04/27 04:51:40;;;;;;;7.17;2.67;;;;;;;11.32;74.35;100507.25;1743441;81;20988;-65
2022/04/27 04:54:20;;;;;;;4.00;2.20;;;;;;;11.46;73.08;100508.19;1773809;81;21447;-66
2022/04/27 04:57:01;;;;;;;4.97;2.72;;;;;;;11.57;72.05;100508.15;1774088;81;21043;-64
2022/04/27 04:59:48;;;;;;;3.00;2.42;;;;;;;11.68;71.30;100513.92;1693952;84;21027;-64
2022/04/27 05:02:21;;;;;;;5.40;2.50;;;;;;;11.78;70.33;100512.77;1679718;85;21092;-62
2022/04/27 05:04:53;;;;;;;5.62;3.08;;;;;;;11.88;69.83;100516.84;1645138;85;21077;-63
2022/04/27 05:07:29;;;;;;;4.92;2.50;;;;;;;11.99;69.61;100509.91;1535906;93;21101;-64
2022/04/27 05:10:01;;;;;;;4.28;2.10;;;;;;;12.10;68.65;100516.72;1547247;92;21076;-71
2022/04/27 05:12:43;;;;;;;3.30;2.27;;;;;;;12.17;67.78;100513.47;1550775;92;21132;-64
2022/04/27 05:15:14;;;;;;;3.15;2.47;;;;;;;12.25;67.28;100510.02;1550824;92;21555;-66
2022/04/27 05:18:05;;;;;;;4.42;2.55;;;;;;;12.30;66.18;100520.39;1495864;95;21133;-65
2022/04/27 05:20:40;;;;;;;3.55;2.50;;;;;;;12.37;66.01;100522.14;1520464;93;21111;-64
2022/04/27 05:23:16;;;;;;;5.87;2.75;;;;;;;12.40;65.57;100527.75;1543713;92;21043;-64
2022/04/27 05:25:48;;;;;;;3.67;2.67;;;;;;;12.40;65.63;100537.37;1572798;88;21024;-64
2022/04/27 05:34:19;;;;;;;4.45;2.90;;;;;;;12.43;65.51;100542.98;1679907;85;21063;-64
2022/04/27 05:36:50;;;;;;;5.05;2.50;;;;;;;12.44;65.01;100546.05;1750606;81;21023;-64
2022/04/27 05:39:38;;;;;;;6.53;3.22;;;;;;;12.45;65.16;100548.59;1775763;80;21464;-65
2022/04/27 05:42:12;;;;;;;4.58;2.67;;;;;;;12.45;65.03;100541.72;1774348;81;21557;-64
2022/04/27 05:44:44;;;;;;;5.83;2.58;;;;;;;12.47;64.86;100545.11;1773892;81;21039;-64
2022/04/27 05:47:16;;;;;;;4.22;2.72;;;;;;;12.47;64.41;100549.75;1737786;81;21059;-63
2022/04/27 05:49:57;;;;;;;3.60;2.72;;;;;;;12.42;63.71;100557.24;1757042;81;21004;-64
2022/04/27 05:52:53;;;;;;;4.20;2.80;;;;;;;12.37;64.02;100555.64;1747780;81;21047;-66
2022/04/27 05:55:43;;;;;;;6.05;3.15;;;;;;;12.38;64.52;100557.34;1775842;81;21513;-67
2022/04/27 05:58:17;;;;;;;4.78;2.65;;;;;;;12.44;64.71;100558.41;1771489;81;21039;-65
2022/04/27 06:00:55;;;;;;;4.53;2.77;;;;;;;12.51;64.44;100551.03;1681335;84;21644;-64
2022/04/27 06:03:27;;;;;;;5.03;2.90;;;;;;;12.60;64.43;100557.52;1680970;85;21075;-64
2022/04/27 06:05:59;;;;;;;9.50;4.05;;;;;;;12.70;64.45;100555.73;1623185;88;21558;-63
2022/04/27 06:08:29;;;;;;;3.62;2.50;;;;;;;12.83;64.26;100558.52;1581898;91;21185;-65
2022/04/27 06:11:02;;;;;;;5.90;3.00;;;;;;;12.96;63.37;100561.81;1612163;89;21027;-64
2022/04/27 06:13:32;;;;;;;3.70;2.70;;;;;;;13.08;63.16;100565.67;1611962;89;21194;-64
2022/04/27 06:16:10;;;;;;;;;;;;;;;13.18;62.49;100570.80;1579380;91;21099;-65
2022/04/27 06:18:45;;;;;;;4.47;2.60;;;;;;;13.27;61.51;100573.13;1610216;89;20164;-64
2022/04/27 06:21:17;;;;;;;4.90;2.70;;;;;;;13.35;61.07;100577.57;1581813;91;21108;-64
2022/04/27 06:23:47;;;;;;;3.20;2.75;;;;;;;13.44;60.08;100577.67;1644893;85;21158;-65
2022/04/27 06:26:18;;;;;;;4.83;2.60;;;;;;;13.47;59.56;100581.38;1756932;81;21019;-64
2022/04/27 06:28:48;;;;;;;7.37;2.35;;;;;;;13.49;59.51;100587.52;1745879;81;21007;-65
2022/04/27 06:31:19;;;;;;;4.60;2.75;;;;;;;13.58;59.77;100589.00;1751434;80;21488;-65
2022/04/27 06:33:49;;;;;;;5.92;2.75;;;;;;;13.69;59.55;100584.78;1757135;80;21439;-63
2022/04/27 06:36:20;;;;;;;2.85;2.22;;;;;;;13.76;58.96;100587.53;1791229;80;21062;-63
2022/04/27 06:38:50;;;;;;;3.85;2.55;;;;;;;13.82;59.01;100583.39;1791239;80;20987;-62
2022/04/27 06:41:23;;;;;;;5.58;3.10;;;;;;;13.91;59.13;100584.85;1766934;80;21037;-63
2022/04/27 06:44:00;;;;;;;;;;;;;;;14.04;59.11;100590.86;1742370;80;21123;-64
2022/04/27 06:46:48;;;;;;;7.40;3.02;;;;;;;14.19;58.21;100599.72;1773199;80;20488;-65
2022/04/27 06:49:37;;;;;;;4.62;2.95;;;;;;;14.27;57.59;100597.26;1760598;80;21046;-65
2022/04/27 06:52:25;;;;;;;4.40;2.67;;;;;;;14.26;57.53;100594.19;1722982;82;21085;-63
2022/04/27 06:55:04;;;;;;;4.67;2.67;;;;;;;14.34;57.81;100596.73;1707547;82;21022;-64
2022/04/27 06:57:36;;;;;;;5.33;2.90;;;;;;;14.39;56.55;100601.59;1734626;82;21078;-63
2022/04/27 07:00:10;;;;;;;4.00;2.87;;;;;;;14.43;57.26;100613.91;1746827;81;21022;-63
2022/04/27 07:02:40;;;;;;;4.22;2.42;;;;;;;14.50;57.09;100609.22;1718379;82;21018;-68
2022/04/27 07:05:16;;;;;;;4.53;2.20;;;;;;;14.61;56.65;100607.69;1747337;81;21470;-64
2022/04/27 07:07:41;;;;;;;5.30;2.85;;;;;;;14.75;56.23;100614.30;1747081;81;21011;-67
2022/04/27 07:10:13;;;;;;;3.67;2.60;;;;;;;14.88;55.90;100616.14;1747583;82;21045;-64
2022/04/27 07:12:43;;;;;;;3.47;2.40;;;;;;;15.02;55.01;100621.08;1747326;82;21011;-64
2022/04/27 07:15:12;;;;;;;5.92;2.77;;;;;;;15.12;55.13;100620.06;1747209;82;21458;-64
2022/04/27 07:17:42;;;;;;;5.42;2.85;;;;;;;15.22;54.44;100617.13;1747269;80;21022;-64
2022/04/27 07:20:13;;;;;;;4.40;2.72;;;;;;;15.31;54.07;100620.46;1683032;84;21090;-64
2022/04/27 07:22:43;;;;;;;9.53;2.70;;;;;;;15.41;53.35;100616.67;1683327;85;21094;-64
2022/04/27 07:25:14;;;;;;;3.62;2.72;;;;;;;15.48;53.57;100628.51;1683352;85;21066;-63
2022/04/27 07:27:45;;;;;;;6.10;2.75;;;;;;;15.59;53.95;100619.22;1683102;85;21043;-64
2022/04/27 07:30:15;;;;;;;4.12;2.33;;;;;;;15.71;52.42;100629.87;1683310;85;21087;-65
2022/04/27 07:32:46;;;;;;;3.30;2.58;;;;;;;15.72;51.67;100632.41;1683058;84;21107;-64
2022/04/27 07:35:15;;;;;;;4.67;2.58;;;;;;;15.71;51.07;100634.02;1660888;85;21094;-63
2022/04/27 07:37:45;;;;;;;4.20;2.77;;;;;;;15.65;50.41;100629.39;1698543;82;21150;-63
2022/04/27 07:40:16;;;;;;;7.95;2.87;;;;;;;15.64;51.29;100635.45;1721085;82;21029;-63
2022/04/27 07:42:47;;;;;;;4.33;2.65;;;;;;;15.74;51.44;100639.09;1750962;82;21086;-65
2022/04/27 07:45:17;;;;;;;4.25;2.42;;;;;;;15.79;50.46;100640.64;1724145;82;21081;-66
2022/04/27 07:47:48;;;;;;;3.62;2.45;;;;;;;15.83;51.04;100641.34;1750966;82;21504;-64
2022/04/27 07:50:20;;;;;;;5.17;2.42;;;;;;;15.93;51.16;100629.77;1750942;82;21010;-65
2022/04/27 07:52:51;;;;;;;3.80;2.55;;;;;;;16.07;51.09;100638.24;1688655;83;21137;-64
2022/04/27 07:55:20;;;;;;;5.50;2.70;;;;;;;16.21;50.77;100630.66;1688683;83;21526;-65
2022/04/27 07:57:49;;;;;;;7.65;4.15;;;;;;;16.31;49.78;100634.30;1688914;85;21530;-63
2022/04/27 08:00:20;;;;;;;4.30;2.92;;;;;;;16.29;49.06;100639.22;1689010;85;21011;-65
2022/04/27 08:02:49;;;;;;;5.10;2.70;;;;;;;16.34;49.91;100649.05;1688891;85;21459;-66
2022/04/27 08:05:21;;;;;;;4.85;2.47;;;;;;;16.45;49.33;100648.29;1644580;85;21088;-64
2022/04/27 08:07:51;;;;;;;4.78;2.60;;;;;;;16.43;49.06;100645.75;1688787;85;21034;-65
2022/04/27 08:10:20;;;;;;;4.97;3.08;;;;;;;16.48;49.35;100652.83;1702251;82;21442;-64
2022/04/27 08:12:51;;;;;;;4.12;2.50;;;;;;;16.56;49.27;100651.67;1688879;85;21074;-64
2022/04/27 08:15:24;;;;;;;4.85;2.70;;;;;;;16.65;48.61;100653.08;1688894;85;21027;-63
2022/04/27 08:18:07;;;;;;;4.33;2.27;;;;;;;16.78;46.96;100658.45;1688959;85;21067;-64
2022/04/27 08:23:34;;;;;;;3.15;2.40;;;;;;;17.35;46.09;100650.66;1689047;85;21521;-62
2022/04/27 08:26:05;;;;;;;3.55;2.95;;;;;;;17.77;46.75;100651.23;1688984;85;21034;-64
2022/04/27 08:28:37;;;;;;;5.40;2.55;;;;;;;18.09;44.92;100655.36;1688687;85;21509;-63
2022/04/27 08:31:09;;;;;;;5.33;2.37;;;;;;;18.26;45.07;100662.44;1722003;80;21054;-64
2022/04/27 08:33:39;;;;;;;4.15;2.55;;;;;;;18.36;43.06;100662.12;1751159;82;21038;-65
2022/04/27 08:36:08;;;;;;;2.92;2.30;;;;;;;18.44;43.27;100660.91;1751033;82;21045;-64
2022/04/27 08:38:41;;;;;;;4.55;2.33;;;;;;;18.54;43.21;100654.74;1747594;80;21446;-64
2022/04/27 08:41:10;;;;;;;5.90;2.47;;;;;;;18.64;43.13;100664.72;1740724;81;21058;-64
2022/04/27 08:43:41;;;;;;;5.72;2.90;;;;;;;18.77;42.06;100664.98;1682923;84;21111;-64
2022/04/27 08:46:14;;;;;;;4.10;2.40;;;;;;;18.76;41.20;100651.65;1683097;85;21087;-65
2022/04/27 08:48:48;;;;;;;4.17;2.37;;;;;;;18.73;41.71;100659.08;1683114;85;21086;-63
2022/04/27 08:51:18;;;;;;;4.20;2.45;;;;;;;18.74;42.50;100659.92;1660723;85;21054;-65
2022/04/27 08:53:48;;;;;;;3.50;2.45;;;;;;;18.71;42.29;100659.02;1683021;84;21086;-63
2022/04/27 08:56:17;;;;;;;5.65;3.60;;;;;;;18.76;41.17;100657.75;1682850;85;21055;-64
2022/04/27 08:58:48;;;;;;;8.35;3.33;;;;;;;18.74;42.23;100669.64;1682988;85;21023;-65
2022/04/27 09:01:17;;;;;;;3.22;2.35;;;;;;;18.74;42.16;100657.99;1697383;82;21057;-65
2022/04/27 09:03:48;;;;;;;3.98;2.75;;;;;;;18.75;41.67;100660.22;1629423;87;21631;-65
2022/04/27 09:06:20;;;;;;;4.97;2.42;;;;;;;18.69;42.12;100658.73;1632577;87;21041;-64
2022/04/27 09:08:56;;;;;;;8.38;5.92;;;;;;;18.68;41.62;100659.81;1655532;86;21173;-62
2022/04/27 09:11:28;;;;;;;4.28;3.10;;;;;;;18.61;41.97;100661.01;1576599;90;21069;-63
2022/04/27 09:14:03;;;;;;;3.70;2.47;;;;;;;18.49;41.47;100657.41;1597714;90;21097;-62
2022/04/27 09:22:46;;;;;;;2.40;2.02;;;;;;;18.26;41.03;100668.83;1613602;87;21075;-63
2022/04/27 09:25:16;;;;;;;3.83;2.30;;;;;;;18.10;39.43;100663.98;1649791;85;21490;-65
2022/04/27 09:27:49;;;;;;;4.75;1.92;;;;;;;17.93;39.59;100648.59;1608259;87;21077;-63
2022/04/27 09:30:19;;;;;;;3.35;2.33;;;;;;;17.77;39.63;100659.01;1628766;87;21042;-63
2022/04/27 09:32:51;;;;;;;5.45;2.40;;;;;;;17.68;40.10;100663.21;1556098;89;21186;-62
2022/04/27 09:35:34;;;;;;;5.40;2.30;;;;;;;17.63;39.93;100657.50;1614880;85;21168;-63
2022/04/27 09:38:18;;;;;;;4.62;2.45;;;;;;;17.54;39.89;100656.12;1676747;84;21132;-63
2022/04/27 09:40:54;;;;;;;3.75;2.02;;;;;;;17.49;40.68;100653.22;1679511;83;21103;-62
2022/04/27 09:43:49;;;;;;;2.83;1.75;;;;;;;17.52;39.46;100661.06;1669891;84;21186;-63
2022/04/27 09:46:25;;;;;;;2.45;1.62;;;;;;;17.54;38.90;100663.90;1674293;86;21071;-63
2022/04/27 09:49:09;;;;;;;5.72;1.82;;;;;;;17.51;38.08;100667.69;1671883;84;21120;-63
2022/04/27 09:51:50;;;;;;;2.75;1.80;;;;;;;17.43;38.88;100661.94;1661428;86;21069;-62
2022/04/27 09:54:23;;;;;;;3.75;1.70;;;;;;;17.38;38.58;100657.11;1671412;86;21041;-63
2022/04/27 09:57:05;;;;;;;2.35;1.70;;;;;;;17.32;37.89;100653.05;1683156;83;21079;-64
2022/04/27 09:59:37;;;;;;;4.67;1.72;;;;;;;17.26;37.78;100660.92;1735582;83;21079;-63
2022/04/27 10:02:15;;;;;;;2.85;1.82;;;;;;;17.21;37.22;100651.09;1708893;83;21430;-62
2022/04/27 10:04:47;;;;;;;3.33;1.82;;;;;;;17.16;38.00;100652.34;1678110;85;21052;-62
2022/04/27 10:07:24;;;;;;;2.60;1.80;;;;;;;17.16;37.98;100657.34;1677829;85;21103;-63
2022/04/27 10:09:54;;;;;;;2.72;1.47;;;;;;;17.19;37.80;100661.56;1678168;85;21366;-66
2022/04/27 10:12:25;;;;;;;7.65;2.10;;;;;;;17.19;36.13;100661.56;1677738;85;21554;-63
2022/04/27 10:14:57;;;;;;;4.70;2.10;;;;;;;17.23;36.60;100662.23;1649579;87;21089;-64
2022/04/27 10:17:28;;;;;;;3.77;1.60;;;;;;;17.21;35.67;100656.09;1638674;86;21049;-62
2022/04/27 10:19:58;;;;;;;2.95;1.60;;;;;;;17.08;36.42;100655.73;1628198;87;21051;-63
2022/04/27 10:22:33;;;;;;;2.10;1.50;;;;;;;17.03;36.49;100658.91;1681417;83;21026;-62
2022/04/27 10:25:09;;;;;;;3.83;1.57;;;;;;;16.98;35.96;100649.92;1698105;83;21446;-63
2022/04/27 10:27:40;;;;;;;2.63;1.53;;;;;;;16.91;36.10;100654.70;1684411;84;21419;-63
2022/04/27 10:30:15;;;;;;;3.22;1.65;;;;;;;16.85;37.08;100655.59;1710401;84;21074;-62
2022/04/27 10:32:54;;;;;;;4.05;1.50;;;;;;;16.87;36.60;100658.98;1710447;82;21015;-64
2022/04/27 10:35:31;;;;;;;2.12;1.50;;;;;;;16.82;36.75;100657.98;1710461;82;21007;-62
2022/04/27 10:38:05;;;;;;;5.22;1.45;;;;;;;16.78;36.79;100663.98;1685717;84;21070;-63
2022/04/27 10:40:42;;;;;;;1.35;1.10;;;;;;;16.82;35.57;100660.22;1715762;82;21143;-64
2022/04/27 10:43:15;;;;;;;5.35;1.12;;;;;;;16.83;34.87;100656.91;1729855;83;21075;-64
2022/04/27 10:45:49;;;;;;;2.58;1.25;;;;;;;16.85;34.80;100653.37;1624922;87;21124;-63
2022/04/27 10:48:24;;;;;;;3.12;1.40;;;;;;;16.87;34.76;100649.83;1650147;86;21643;-62
2022/04/27 10:51:02;;;;;;;2.05;1.45;;;;;;;16.88;34.88;100652.91;1654139;85;21494;-63
2022/04/27 10:53:42;;;;;;;1.87;1.40;;;;;;;16.89;34.89;100650.44;1632520;85;21116;-62
2022/04/27 10:56:23;;;;;;;2.55;1.50;;;;;;;16.92;35.15;100663.30;1672995;85;21150;-63
2022/04/27 10:58:54;;;;;;;2.47;1.22;;;;;;;17.03;35.33;100667.20;1627681;86;21105;-64
2022/04/27 11:01:27;;;;;;;5.35;1.30;;;;;;;17.11;34.80;100648.89;1576481;89;21943;-64
2022/04/27 11:04:02;;;;;;;3.92;1.50;;;;;;;17.18;34.70;100655.17;1601740;88;21059;-65
2022/04/27 11:06:49;;;;;;;2.37;1.30;;;;;;;17.19;34.82;100651.33;1602484;88;21131;-62
2022/04/27 11:09:45;;;;;;;1.52;1.17;;;;;;;17.23;34.31;100656.70;1628777;84;21135;-63
2022/04/27 11:12:15;;;;;;;2.80;1.40;;;;;;;17.30;33.82;100660.75;1657333;84;21357;-63
2022/04/27 11:14:46;;;;;;;1.65;1.30;;;;;;;17.32;33.21;100657.21;1676715;85;21084;-62
2022/04/27 11:17:33;;;;;;;2.10;1.40;;;;;;;17.30;33.86;100651.06;1647921;84;21039;-63
2022/04/27 11:20:04;;;;;;;2.37;1.35;;;;;;;17.29;33.30;100655.75;1734806;82;21042;-62
2022/04/27 11:22:38;;;;;;;3.83;1.40;;;;;;;17.33;33.59;100662.52;1736842;82;21039;-62
2022/04/27 11:25:08;;;;;;;2.47;1.50;;;;;;;17.41;34.24;100661.34;1710901;82;21027;-63
2022/04/27 11:27:40;;;;;;;2.37;1.30;;;;;;;17.47;33.20;100667.86;1749967;80;21059;-65
2022/04/27 11:30:13;;;;;;;6.28;1.90;;;;;;;17.47;32.47;100656.77;1735061;82;21178;-64
2022/04/27 11:32:47;;;;;;;2.90;1.20;;;;;;;17.41;32.33;100658.56;1711027;82;21481;-62
2022/04/27 11:35:18;;;;;;;1.95;1.05;;;;;;;17.40;31.71;100656.88;1712302;82;21027;-63
2022/04/27 11:37:52;;;;;;;2.92;1.15;;;;;;;17.29;32.02;100652.98;1749694;82;21042;-62
2022/04/27 11:40:27;;;;;;;2.05;1.12;;;;;;;17.29;32.27;100655.75;1738324;81;21014;-63
2022/04/27 11:43:00;;;;;;;1.80;1.15;;;;;;;17.32;30.86;100650.28;1766351;81;20988;-63
2022/04/27 11:45:32;;;;;;;7.45;1.40;;;;;;;17.35;31.56;100652.05;1766636;81;20992;-64
2022/04/27 11:48:08;;;;;;;2.05;1.00;;;;;;;17.42;31.29;100645.02;1730206;82;21114;-61
2022/04/27 11:50:45;;;;;;;;;;;;;;;17.49;30.21;100643.53;1726184;82;21043;-62
2022/04/27 11:53:11;;;;;;;9.35;2.87;;;;;;;17.48;30.07;100641.30;1750720;82;20193;-63
2022/04/27 11:55:43;;;;;;;3.77;1.65;;;;;;;17.46;30.11;100641.23;1722856;82;21036;-61
2022/04/27 11:58:22;;;;;;;4.42;1.10;;;;;;;17.46;30.69;100632.92;1722573;82;21178;-62
2022/04/27 12:00:58;;;;;;;1.82;1.07;;;;;;;17.43;30.99;100632.31;1750869;82;21063;-62
2022/04/27 12:03:30;;;;;;;3.40;1.20;;;;;;;17.42;31.08;100638.09;1750912;82;21436;-62
2022/04/27 12:06:00;;;;;;;4.65;1.62;;;;;;;17.34;31.50;100643.42;1727442;82;21107;-62
2022/04/27 12:08:33;;;;;;;2.10;1.60;;;;;;;17.26;33.38;100648.45;1667864;85;21061;-61
2022/04/27 12:11:03;;;;;;;4.75;2.00;;;;;;;17.17;33.83;100646.56;1654637;87;21132;-64
2022/04/27 12:13:34;;;;;;;3.70;1.60;;;;;;;17.06;34.63;100647.36;1664868;85;21076;-61
2022/04/27 12:16:06;;;;;;;4.65;1.82;;;;;;;16.95;34.87;100640.70;1688804;83;21045;-60
2022/04/27 12:18:38;;;;;;;4.85;1.70;;;;;;;16.89;35.38;100646.29;1678054;85;21254;-61